createdAt,value
2017-09-13T00:00:52.167Z,100173.47
2017-09-13T00:03:20.448Z,100178.53
2017-09-13T00:05:48.718Z,100143.00
2017-09-13T00:08:17.010Z,100125.81
2017-09-13T00:10:45.281Z,100114.39
2017-09-13T00:13:13.603Z,100091.70
2017-09-13T00:15:42.647Z,100084.24
2017-09-13T00:18:10.927Z,100082.48
2017-09-13T00:20:39.226Z,100097.31
2017-09-13T00:23:07.509Z,100100.74
2017-09-13T00:25:35.786Z,100114.48
2017-09-13T00:28:04.095Z,100119.95
2017-09-13T00:30:32.373Z,100097.07
2017-09-13T00:33:00.655Z,100073.38
2017-09-13T00:35:28.945Z,100068.83
2017-09-13T00:37:57.998Z,100046.17
2017-09-13T00:40:26.278Z,100046.00
2017-09-13T00:42:55.329Z,100043.97
2017-09-13T00:45:24.380Z,100038.78
2017-09-13T00:47:52.666Z,100026.91
2017-09-13T00:50:20.941Z,100021.25
2017-09-13T00:52:49.241Z,100009.20
2017-09-13T00:55:17.583Z,100002.33
2017-09-13T00:57:45.858Z,99994.82
2017-09-13T01:00:14.138Z,99990.39
2017-09-13T01:02:42.427Z,99971.88
2017-09-13T01:05:10.709Z,99956.71
2017-09-13T01:07:38.977Z,99950.95
2017-09-13T01:10:07.293Z,99926.79
2017-09-13T01:12:35.587Z,99910.55
2017-09-13T01:15:03.901Z,99910.49
2017-09-13T01:17:32.950Z,99889.25
2017-09-13T01:20:01.253Z,99882.79
2017-09-13T01:22:29.531Z,99863.79
2017-09-13T01:24:57.809Z,99850.66
2017-09-13T01:27:26.111Z,99847.98
2017-09-13T01:29:55.149Z,99833.00
2017-09-13T01:32:23.431Z,99822.81
2017-09-13T01:34:51.706Z,99814.89
2017-09-13T01:37:20.003Z,99802.73
2017-09-13T01:39:48.291Z,99804.02
2017-09-13T01:42:16.579Z,99785.75
2017-09-13T01:44:44.869Z,99768.63
2017-09-13T01:47:13.157Z,99745.83
2017-09-13T01:49:41.438Z,99744.00
2017-09-13T01:52:09.716Z,99746.80
2017-09-13T01:54:38.028Z,99725.48
2017-09-13T01:57:07.096Z,99706.73
2017-09-13T01:59:35.377Z,99699.88
2017-09-13T02:02:03.655Z,99676.95
2017-09-13T02:04:31.960Z,99678.30
2017-09-13T02:07:01.035Z,99664.91
2017-09-13T02:09:29.310Z,99664.74
2017-09-13T02:11:57.590Z,99653.34
2017-09-13T02:14:25.877Z,99655.73
2017-09-13T02:16:54.173Z,99646.48
2017-09-13T02:19:22.459Z,99633.34
2017-09-13T02:21:51.523Z,99615.55
2017-09-13T02:24:19.829Z,99619.30
2017-09-13T02:26:48.110Z,99604.17
2017-09-13T02:29:17.175Z,99595.47
2017-09-13T02:31:45.466Z,99586.90
2017-09-13T02:34:13.744Z,99566.02
2017-09-13T02:36:42.792Z,99553.28
2017-09-13T02:39:12.025Z,99554.62
2017-09-13T02:41:40.335Z,99541.88
2017-09-13T02:44:08.629Z,99531.88
2017-09-13T02:46:36.899Z,99515.13
2017-09-13T02:49:05.200Z,99508.84
2017-09-13T02:51:34.274Z,99484.59
2017-09-13T02:54:02.578Z,99473.77
2017-09-13T02:56:30.865Z,99480.50
2017-09-13T02:58:59.477Z,99465.90
2017-09-13T03:01:28.521Z,99447.33
2017-09-13T03:03:56.853Z,99455.77
2017-09-13T03:06:25.907Z,99453.13
2017-09-13T03:08:54.195Z,99443.93
2017-09-13T03:11:22.494Z,99425.52
2017-09-13T03:13:50.779Z,99423.53
2017-09-13T03:16:19.838Z,99400.94
2017-09-13T03:18:48.124Z,99418.05
2017-09-13T03:21:17.182Z,99405.14
2017-09-13T03:23:45.469Z,99372.94
2017-09-13T03:26:13.750Z,99385.55
2017-09-13T03:28:42.023Z,99369.11
2017-09-13T03:31:10.332Z,99373.84
2017-09-13T03:33:38.634Z,99364.02
2017-09-13T03:36:06.926Z,99363.12
2017-09-13T03:38:35.239Z,99355.64
2017-09-13T03:41:04.283Z,99344.31
2017-09-13T03:43:32.567Z,99320.92
2017-09-13T03:46:00.908Z,99320.57
2017-09-13T03:48:29.962Z,99320.23
2017-09-13T03:50:58.244Z,99316.11
2017-09-13T03:53:26.527Z,99291.64
2017-09-13T03:55:54.815Z,99295.83
2017-09-13T03:58:23.093Z,99274.72
2017-09-13T04:00:51.406Z,99279.03
2017-09-13T04:03:20.455Z,99276.28
2017-09-13T04:05:49.494Z,99257.40
2017-09-13T04:08:18.550Z,99265.08
2017-09-13T04:10:46.828Z,99242.99
2017-09-13T04:13:15.108Z,99241.55
2017-09-13T04:15:43.417Z,99249.85
2017-09-13T04:18:11.687Z,99230.30
2017-09-13T04:20:39.992Z,99238.09
2017-09-13T04:23:08.263Z,99228.47
2017-09-13T04:25:36.546Z,99214.52
2017-09-13T04:28:04.829Z,99214.53
2017-09-13T04:30:33.112Z,99208.38
2017-09-13T04:33:01.394Z,99188.13
2017-09-13T04:35:30.433Z,99199.28
2017-09-13T04:37:58.710Z,99196.33
2017-09-13T04:40:27.007Z,99199.41
2017-09-13T04:42:55.278Z,99183.09
2017-09-13T04:45:23.556Z,99192.73
2017-09-13T04:47:51.838Z,99192.52
2017-09-13T04:50:20.126Z,99177.87
2017-09-13T04:52:48.404Z,99184.05
2017-09-13T04:55:16.687Z,99157.22
2017-09-13T04:57:44.994Z,99154.81
2017-09-13T05:00:13.280Z,99137.38
2017-09-13T05:02:41.560Z,99140.86
2017-09-13T05:05:09.839Z,99139.26
2017-09-13T05:07:38.115Z,99138.47
2017-09-13T05:10:06.409Z,99155.39
2017-09-13T05:12:34.684Z,99156.86
2017-09-13T05:15:02.970Z,99145.87
2017-09-13T05:17:31.254Z,99164.53
2017-09-13T05:19:59.540Z,99142.25
2017-09-13T05:22:27.831Z,99144.53
2017-09-13T05:24:56.896Z,99145.88
2017-09-13T05:27:25.185Z,99158.09
2017-09-13T05:29:53.458Z,99159.02
2017-09-13T05:32:21.760Z,99153.38
2017-09-13T05:34:50.046Z,99149.50
2017-09-13T05:37:19.094Z,99168.30
2017-09-13T05:39:47.384Z,99148.17
2017-09-13T05:42:15.666Z,99147.50
2017-09-13T05:44:43.959Z,99181.06
2017-09-13T05:47:12.239Z,99144.69
2017-09-13T05:49:40.524Z,99148.29
2017-09-13T05:52:08.812Z,99156.34
2017-09-13T05:54:37.104Z,99141.47
2017-09-13T05:57:05.374Z,99145.48
2017-09-13T05:59:33.659Z,99150.45
2017-09-13T06:02:01.937Z,99157.84
2017-09-13T06:04:30.217Z,99162.81
2017-09-13T06:06:58.493Z,99169.11
2017-09-13T06:09:26.759Z,99207.01
2017-09-13T06:11:55.050Z,99165.48
2017-09-13T06:14:23.323Z,99175.55
2017-09-13T06:16:51.595Z,99173.00
2017-09-13T06:19:19.875Z,99215.72
2017-09-13T06:21:48.154Z,99183.74
2017-09-13T06:24:16.434Z,99169.25
2017-09-13T06:26:44.710Z,99192.47
2017-09-13T06:29:12.990Z,99204.19
2017-09-13T06:31:41.288Z,99214.64
2017-09-13T06:34:09.572Z,99209.80
2017-09-13T06:36:37.859Z,99204.88
2017-09-13T06:39:06.983Z,99198.41
2017-09-13T06:41:35.273Z,99209.65
2017-09-13T06:44:04.313Z,99217.98
2017-09-13T06:46:32.582Z,99215.94
2017-09-13T06:49:00.850Z,99208.41
2017-09-13T06:51:29.886Z,99215.36
2017-09-13T06:53:58.179Z,99226.80
2017-09-13T06:56:26.463Z,99231.91
2017-09-13T06:58:54.737Z,99221.00
2017-09-13T07:01:23.063Z,99221.00
2017-09-13T07:03:52.112Z,99240.51
2017-09-13T07:06:20.389Z,99264.91
2017-09-13T07:08:48.662Z,99274.23
2017-09-13T07:11:16.941Z,99317.05
2017-09-13T07:13:45.226Z,99287.45
2017-09-13T07:16:13.515Z,99307.16
2017-09-13T07:18:41.796Z,99300.73
2017-09-13T07:21:10.066Z,99304.65
2017-09-13T07:23:38.364Z,99310.97
2017-09-13T07:26:06.646Z,99311.56
2017-09-13T07:28:34.924Z,99320.02
2017-09-13T07:31:03.193Z,99314.51
2017-09-13T07:33:31.562Z,99326.88
2017-09-13T07:35:59.836Z,99333.60
2017-09-13T07:38:28.113Z,99336.83
2017-09-13T07:40:56.398Z,99350.52
2017-09-13T07:43:24.668Z,99333.40
2017-09-13T07:45:52.948Z,99348.70
2017-09-13T07:48:21.243Z,99340.36
2017-09-13T07:50:49.531Z,99362.16
2017-09-13T07:53:17.815Z,99367.68
2017-09-13T07:55:46.118Z,99361.09
2017-09-13T07:58:14.394Z,99363.10
2017-09-13T08:00:42.668Z,99374.99
2017-09-13T08:03:10.989Z,99379.21
2017-09-13T08:05:39.267Z,99390.39
2017-09-13T08:08:07.559Z,99394.02
2017-09-13T08:10:36.602Z,99419.80
2017-09-13T08:13:04.882Z,99425.73
2017-09-13T08:15:33.168Z,99424.15
2017-09-13T08:18:01.438Z,99440.75
2017-09-13T08:20:29.731Z,99457.72
2017-09-13T08:22:58.001Z,99453.41
2017-09-13T08:25:26.283Z,99476.44
2017-09-13T08:27:54.562Z,99483.40
2017-09-13T08:30:22.842Z,99487.89
2017-09-13T08:32:51.132Z,99497.95
2017-09-13T08:35:19.406Z,99491.80
2017-09-13T08:37:47.698Z,99519.75
2017-09-13T08:40:15.971Z,99495.83
2017-09-13T08:42:44.246Z,99508.27
2017-09-13T08:45:12.535Z,99525.88
2017-09-13T08:47:40.811Z,99522.44
2017-09-13T08:50:09.090Z,99500.14
2017-09-13T08:52:37.382Z,99546.81
2017-09-13T08:55:05.658Z,99528.48
2017-09-13T08:57:33.944Z,99540.13
2017-09-13T09:00:02.243Z,99537.81
2017-09-13T09:02:30.511Z,99563.27
2017-09-13T09:04:58.803Z,99545.84
2017-09-13T09:07:27.072Z,99589.41
2017-09-13T09:09:56.113Z,99600.91
2017-09-13T09:12:24.383Z,99603.25
2017-09-13T09:14:52.659Z,99601.74
2017-09-13T09:17:20.949Z,99609.55
2017-09-13T09:19:49.230Z,99605.21
2017-09-13T09:22:17.508Z,99618.32
2017-09-13T09:24:45.836Z,99624.12
2017-09-13T09:27:14.140Z,99622.33
2017-09-13T09:29:42.419Z,99627.70
2017-09-13T09:32:10.705Z,99637.68
2017-09-13T09:34:38.987Z,99628.79
2017-09-13T09:37:07.251Z,99637.91
2017-09-13T09:39:35.540Z,99638.37
2017-09-13T09:42:03.831Z,99640.98
2017-09-13T09:44:32.109Z,99646.39
2017-09-13T09:47:00.391Z,99651.65
2017-09-13T09:49:28.683Z,99691.17
2017-09-13T09:51:57.734Z,99687.59
2017-09-13T09:54:26.050Z,99684.02
2017-09-13T09:56:54.342Z,99659.97
2017-09-13T09:59:22.614Z,99683.16
2017-09-13T10:01:50.873Z,99713.19
2017-09-13T10:04:19.159Z,99701.05
2017-09-13T10:06:47.429Z,99674.21
2017-09-13T10:09:15.715Z,99721.80
2017-09-13T10:11:43.986Z,99715.08
2017-09-13T10:14:12.254Z,99704.81
2017-09-13T10:16:40.544Z,99726.39
2017-09-13T10:19:08.810Z,99717.08
2017-09-13T10:21:37.856Z,99728.27
2017-09-13T10:24:06.143Z,99744.32
2017-09-13T10:26:34.421Z,99742.55
2017-09-13T10:29:02.726Z,99744.87
2017-09-13T10:31:31.026Z,99752.05
2017-09-13T10:34:00.080Z,99748.92
2017-09-13T10:36:28.356Z,99755.50
2017-09-13T10:38:56.642Z,99763.86
2017-09-13T10:41:24.916Z,99764.44
2017-09-13T10:43:53.187Z,99762.63
2017-09-13T10:46:21.463Z,99767.64
2017-09-13T10:48:49.743Z,99790.03
2017-09-13T10:51:18.022Z,99803.00
2017-09-13T10:53:46.308Z,99802.70
2017-09-13T10:56:14.581Z,99780.23
2017-09-13T10:58:42.852Z,99821.08
2017-09-13T11:01:11.139Z,99811.59
2017-09-13T11:03:39.443Z,99815.54
2017-09-13T11:06:07.718Z,99823.47
2017-09-13T11:08:36.002Z,99817.28
2017-09-13T11:11:04.272Z,99831.86
2017-09-13T11:13:32.564Z,99846.52
2017-09-13T11:16:00.863Z,99835.92
2017-09-13T11:18:29.205Z,99826.77
2017-09-13T11:20:57.475Z,99847.16
2017-09-13T11:23:25.759Z,99847.13
2017-09-13T11:25:54.073Z,99861.39
2017-09-13T11:28:22.346Z,99862.58
2017-09-13T11:30:50.613Z,99861.66
2017-09-13T11:33:18.891Z,99863.93
2017-09-13T11:35:47.177Z,99866.04
2017-09-13T11:38:15.451Z,99857.19
2017-09-13T11:40:43.730Z,99875.05
2017-09-13T11:43:12.018Z,99900.34
2017-09-13T11:45:40.302Z,99889.25
2017-09-13T11:48:08.610Z,99884.75
2017-09-13T11:50:36.890Z,99893.12
2017-09-13T11:53:05.153Z,99917.17
2017-09-13T11:55:33.437Z,99923.89
2017-09-13T11:58:01.707Z,99887.55
2017-09-13T12:00:29.988Z,99907.52
2017-09-13T12:02:58.254Z,99933.71
2017-09-13T12:05:26.539Z,99912.97
2017-09-13T12:07:54.827Z,99924.44
2017-09-13T12:10:23.119Z,99938.77
2017-09-13T12:12:52.159Z,99944.22
2017-09-13T12:15:20.447Z,99932.93
2017-09-13T12:17:48.738Z,99941.04
2017-09-13T12:20:17.780Z,99954.86
2017-09-13T12:22:46.046Z,99949.59
2017-09-13T12:25:14.358Z,99948.27
2017-09-13T12:27:42.625Z,99956.14
2017-09-13T12:30:10.897Z,99950.49
2017-09-13T12:32:39.182Z,99967.58
2017-09-13T12:35:07.470Z,99970.28
2017-09-13T12:37:35.751Z,99981.55
2017-09-13T12:40:04.020Z,99973.58
2017-09-13T12:42:32.313Z,99979.97
2017-09-13T12:45:00.589Z,99985.56
2017-09-13T12:47:28.865Z,99986.98
2017-09-13T12:49:57.154Z,99973.52
2017-09-13T12:52:25.422Z,99991.45
2017-09-13T12:54:53.691Z,99995.39
2017-09-13T12:57:21.977Z,99984.97
2017-09-13T12:59:50.253Z,99999.94
2017-09-13T13:02:18.551Z,100007.34
2017-09-13T13:04:46.842Z,100010.44
2017-09-13T13:07:15.119Z,100003.55
2017-09-13T13:09:43.394Z,99997.81
2017-09-13T13:12:11.673Z,100009.92
2017-09-13T13:14:39.951Z,100014.85
2017-09-13T13:17:08.248Z,100004.30
2017-09-13T13:19:37.317Z,99979.89
2017-09-13T13:22:05.588Z,99996.98
2017-09-13T13:24:33.890Z,100002.79
2017-09-13T13:27:02.167Z,100035.14
2017-09-13T13:29:30.437Z,100017.78
2017-09-13T13:31:58.724Z,100030.78
2017-09-13T13:34:27.021Z,100042.00
2017-09-13T13:36:55.295Z,100031.47
2017-09-13T13:39:23.591Z,100025.40
2017-09-13T13:41:51.866Z,100009.30
2017-09-13T13:44:20.175Z,100036.59
2017-09-13T13:46:48.458Z,100006.86
2017-09-13T13:49:16.739Z,100002.27
2017-09-13T13:51:45.001Z,100016.56
2017-09-13T13:54:13.301Z,100020.58
2017-09-13T13:56:41.580Z,100031.66
2017-09-13T13:59:09.858Z,100003.48
2017-09-13T14:01:38.146Z,100011.34
2017-09-13T14:04:06.418Z,100015.72
2017-09-13T14:06:34.703Z,100016.48
2017-09-13T14:09:02.977Z,100009.42
2017-09-13T14:11:31.255Z,100029.48
2017-09-13T14:13:59.542Z,100028.29
2017-09-13T14:16:27.850Z,100023.17
2017-09-13T14:18:56.904Z,100022.50
2017-09-13T14:21:25.185Z,100028.58
2017-09-13T14:23:53.469Z,100040.55
2017-09-13T14:26:21.765Z,100030.34
2017-09-13T14:28:50.056Z,100027.84
2017-09-13T14:31:18.347Z,100034.06
2017-09-13T14:33:46.647Z,100045.78
2017-09-13T14:36:15.690Z,100034.69
2017-09-13T14:38:43.974Z,100035.55
2017-09-13T14:41:12.274Z,100033.05
2017-09-13T14:43:40.545Z,100025.89
2017-09-13T14:46:08.846Z,100032.78
2017-09-13T14:48:37.130Z,100035.10
2017-09-13T14:51:05.418Z,100030.48
2017-09-13T14:53:34.550Z,100009.97
2017-09-13T14:56:02.830Z,100012.97
2017-09-13T14:58:31.115Z,100010.30
2017-09-13T15:00:59.418Z,100003.04
2017-09-13T15:03:27.711Z,100009.67
2017-09-13T15:05:55.988Z,100004.80
2017-09-13T15:08:24.276Z,100006.69
2017-09-13T15:10:52.584Z,100018.31
2017-09-13T15:13:21.626Z,99993.81
2017-09-13T15:15:49.905Z,99996.02
2017-09-13T15:18:18.181Z,100006.55
2017-09-13T15:20:46.458Z,99994.25
2017-09-13T15:23:14.726Z,100010.91
2017-09-13T15:25:43.003Z,100032.02
2017-09-13T15:28:12.043Z,100026.36
2017-09-13T15:30:40.340Z,100009.22
2017-09-13T15:33:08.618Z,100000.41
2017-09-13T15:35:36.898Z,100015.39
2017-09-13T15:38:05.187Z,100002.70
2017-09-13T15:40:33.467Z,100005.94
2017-09-13T15:43:01.801Z,100007.03
2017-09-13T15:45:30.073Z,99998.40
2017-09-13T15:47:59.140Z,100001.63
2017-09-13T15:50:27.413Z,100001.24
2017-09-13T15:52:55.685Z,99984.89
2017-09-13T15:55:23.961Z,99989.73
2017-09-13T15:57:52.243Z,99991.09
2017-09-13T16:00:20.550Z,99984.08
2017-09-13T16:02:48.840Z,99983.66
2017-09-13T16:05:17.888Z,99985.41
2017-09-13T16:07:46.170Z,99989.98
2017-09-13T16:10:14.446Z,99977.71
2017-09-13T16:12:42.720Z,99985.55
2017-09-13T16:15:11.011Z,99984.34
2017-09-13T16:17:39.292Z,99978.15
2017-09-13T16:20:07.567Z,99978.00
2017-09-13T16:22:35.850Z,99967.86
2017-09-13T16:25:04.128Z,99967.05
2017-09-13T16:27:32.409Z,99961.80
2017-09-13T16:30:00.703Z,99965.72
2017-09-13T16:32:28.985Z,99963.70
2017-09-13T16:34:57.288Z,99963.27
2017-09-13T16:37:25.547Z,99962.41
2017-09-13T16:39:53.819Z,99965.38
2017-09-13T16:42:22.104Z,99957.81
2017-09-13T16:44:50.387Z,99960.00
2017-09-13T16:47:18.673Z,99959.86
2017-09-13T16:49:46.962Z,99958.83
2017-09-13T16:52:15.257Z,99963.42
2017-09-13T16:54:45.123Z,99958.96
2017-09-13T16:57:13.418Z,99959.61
2017-09-13T16:59:41.706Z,99953.14
2017-09-13T17:02:09.982Z,99952.45
2017-09-13T17:04:38.345Z,99950.03
2017-09-13T17:07:06.646Z,99948.79
2017-09-13T17:09:34.919Z,99948.80
2017-09-13T17:12:03.202Z,99951.62
2017-09-13T17:14:31.499Z,99947.15
2017-09-13T17:16:59.768Z,99954.34
2017-09-13T17:19:28.046Z,99951.34
2017-09-13T17:21:56.330Z,99952.95
2017-09-13T17:24:24.611Z,99953.20
2017-09-13T17:26:52.881Z,99951.84
2017-09-13T17:29:21.170Z,99946.31
2017-09-13T17:31:49.446Z,99947.14
2017-09-13T17:34:17.728Z,99945.68
2017-09-13T17:36:46.022Z,99945.28
2017-09-13T17:39:14.293Z,99936.50
2017-09-13T17:41:42.578Z,99931.53
2017-09-13T17:44:10.857Z,99936.78
2017-09-13T17:46:39.140Z,99927.88
2017-09-13T17:49:07.417Z,99927.45
2017-09-13T17:51:35.704Z,99929.44
2017-09-13T17:54:04.067Z,99927.91
2017-09-13T17:56:32.347Z,99921.33
2017-09-13T17:59:00.636Z,99925.52
2017-09-13T18:01:28.923Z,99925.37
2017-09-13T18:03:57.221Z,99922.56
2017-09-13T18:06:25.499Z,99917.05
2017-09-13T18:08:53.780Z,99908.92
2017-09-13T18:11:22.090Z,99915.23
2017-09-13T18:13:50.383Z,99922.20
2017-09-13T18:16:18.662Z,99905.73
2017-09-13T18:18:46.938Z,99919.92
2017-09-13T18:21:15.220Z,99914.64
2017-09-13T18:23:43.512Z,99910.66
2017-09-13T18:26:12.562Z,99913.95
2017-09-13T18:28:40.838Z,99919.02
2017-09-13T18:31:09.117Z,99922.75
2017-09-13T18:33:37.398Z,99934.84
2017-09-13T18:36:05.683Z,99929.58
2017-09-13T18:38:33.954Z,99914.66
2017-09-13T18:41:02.239Z,99913.30
2017-09-13T18:43:30.532Z,99910.39
2017-09-13T18:45:58.806Z,99917.31
2017-09-13T18:48:27.081Z,99924.74
2017-09-13T18:50:55.370Z,99927.33
2017-09-13T18:53:23.653Z,99929.64
2017-09-13T18:55:51.944Z,99939.36
2017-09-13T18:58:20.218Z,99937.66
2017-09-13T19:00:48.506Z,99937.55
2017-09-13T19:03:16.785Z,99936.76
2017-09-13T19:05:45.097Z,99942.94
2017-09-13T19:08:13.383Z,99937.18
2017-09-13T19:10:42.439Z,99929.12
2017-09-13T19:13:10.721Z,99930.22
2017-09-13T19:15:38.996Z,99938.63
2017-09-13T19:18:07.271Z,99937.38
2017-09-13T19:20:35.555Z,99942.10
2017-09-13T19:23:03.827Z,99948.83
2017-09-13T19:25:32.114Z,99941.89
2017-09-13T19:28:00.387Z,99933.92
2017-09-13T19:30:28.658Z,99935.92
2017-09-13T19:32:56.936Z,99945.47
2017-09-13T19:35:25.222Z,99948.53
2017-09-13T19:37:53.481Z,99947.81
2017-09-13T19:40:22.544Z,99944.97
2017-09-13T19:42:50.799Z,99946.13
2017-09-13T19:45:19.070Z,99941.25
2017-09-13T19:47:47.440Z,99946.59
2017-09-13T19:50:15.706Z,99950.73
2017-09-13T19:52:44.738Z,99952.28
2017-09-13T19:55:13.027Z,99955.28
2017-09-13T19:57:41.295Z,99965.84
2017-09-13T20:00:09.579Z,99956.73
2017-09-13T20:02:37.872Z,99951.98
2017-09-13T20:05:06.142Z,99949.70
2017-09-13T20:07:34.424Z,99959.42
2017-09-13T20:10:02.710Z,99959.83
2017-09-13T20:12:30.984Z,99952.30
2017-09-13T20:14:59.253Z,99955.08
2017-09-13T20:17:27.553Z,99961.91
2017-09-13T20:19:55.822Z,99964.69
2017-09-13T20:22:24.104Z,99965.43
2017-09-13T20:24:52.411Z,99966.28
2017-09-13T20:27:20.674Z,99968.56
2017-09-13T20:29:48.945Z,99965.23
2017-09-13T20:32:17.235Z,99963.56
2017-09-13T20:34:45.515Z,99962.27
2017-09-13T20:37:13.783Z,99958.92
2017-09-13T20:39:42.078Z,99973.05
2017-09-13T20:42:10.346Z,99969.66
2017-09-13T20:44:38.621Z,99968.61
2017-09-13T20:47:06.891Z,99969.78
2017-09-13T20:49:35.163Z,99965.15
2017-09-13T20:52:04.230Z,99959.20
2017-09-13T20:54:32.505Z,99968.23
2017-09-13T20:57:00.778Z,99965.30
2017-09-13T20:59:29.086Z,99962.49
2017-09-13T21:01:57.354Z,99967.09
2017-09-13T21:04:25.648Z,99965.79
2017-09-13T21:06:54.700Z,99972.17
2017-09-13T21:09:22.981Z,99966.83
2017-09-13T21:11:51.259Z,99966.36
2017-09-13T21:14:19.538Z,99968.77
2017-09-13T21:16:47.822Z,99974.55
2017-09-13T21:19:16.098Z,99971.13
2017-09-13T21:21:44.386Z,99972.19
2017-09-13T21:24:12.663Z,99972.72
2017-09-13T21:26:40.952Z,99976.23
2017-09-13T21:29:09.218Z,99977.44
2017-09-13T21:31:37.494Z,99975.24
2017-09-13T21:34:05.774Z,99980.29
2017-09-13T21:36:34.038Z,99984.28
2017-09-13T21:39:02.332Z,99995.63
2017-09-13T21:41:30.611Z,99985.81
2017-09-13T21:43:58.879Z,99981.42
2017-09-13T21:46:27.155Z,99992.34
2017-09-13T21:48:56.194Z,99997.66
2017-09-13T21:51:24.478Z,99991.95
2017-09-13T21:53:52.760Z,99994.55
2017-09-13T21:56:21.037Z,99993.52
2017-09-13T21:58:49.311Z,99993.14
2017-09-13T22:01:17.586Z,99996.62
2017-09-13T22:03:45.863Z,99995.59
2017-09-13T22:06:14.174Z,100002.42
2017-09-13T22:08:42.458Z,99995.34
2017-09-13T22:11:10.733Z,99995.88
2017-09-13T22:13:39.017Z,99996.36
2017-09-13T22:16:07.295Z,99996.72
2017-09-13T22:18:35.565Z,99990.75
2017-09-13T22:21:03.855Z,99988.66
2017-09-13T22:23:32.127Z,99993.46
2017-09-13T22:26:00.402Z,99992.73
2017-09-13T22:28:28.669Z,99991.04
2017-09-13T22:30:56.957Z,99992.75
2017-09-13T22:33:25.235Z,99992.81
2017-09-13T22:35:53.505Z,99994.11
2017-09-13T22:38:21.780Z,99992.58
2017-09-13T22:40:50.056Z,99992.41
2017-09-13T22:43:19.100Z,99985.21
2017-09-13T22:45:47.373Z,99988.47
2017-09-13T22:48:15.657Z,99983.14
2017-09-13T22:50:43.943Z,99989.20
2017-09-13T22:53:12.219Z,99985.58
2017-09-13T22:55:40.493Z,99983.05
2017-09-13T22:58:08.762Z,99983.63
2017-09-13T23:00:37.047Z,99991.36
2017-09-13T23:03:05.317Z,99983.09
2017-09-13T23:05:33.615Z,99973.69
2017-09-13T23:08:01.889Z,99974.12
2017-09-13T23:10:30.162Z,99974.82
2017-09-13T23:12:58.454Z,99977.70
2017-09-13T23:15:26.731Z,99977.74
2017-09-13T23:17:55.010Z,99979.80
2017-09-13T23:20:23.287Z,99973.02
2017-09-13T23:22:51.569Z,99975.02
2017-09-13T23:25:19.835Z,99974.61
2017-09-13T23:27:48.107Z,99975.77
2017-09-13T23:30:17.147Z,99975.84
2017-09-13T23:32:45.418Z,99971.41
2017-09-13T23:35:13.692Z,99976.88
2017-09-13T23:37:41.969Z,99982.81
2017-09-13T23:40:10.242Z,99973.37
2017-09-13T23:42:38.535Z,99982.45
2017-09-13T23:45:06.806Z,99980.49
2017-09-13T23:47:35.086Z,99968.89
2017-09-13T23:50:03.378Z,99970.15
2017-09-13T23:52:31.655Z,99979.91
2017-09-13T23:54:59.944Z,99980.34
2017-09-13T23:57:28.215Z,99973.14
2017-09-13T23:59:56.491Z,99974.06
